sensor_id;sensor_type;location;lat;lon;timestamp;pressure;altitude;pressure_sealevel;temperature;humidity
9277;BME280;4676;42.678;23.244;2023-04-01T00:01:05;93226.72;;;14.00;50.74
9277;BME280;4676;42.678;23.244;2023-04-01T00:03:32;93228.03;;;14.06;50.27
9277;BME280;4676;42.678;23.244;2023-04-01T00:06:00;93222.22;;;14.04;49.72
9277;BME280;4676;42.678;23.244;2023-04-01T00:08:28;93227.72;;;14.10;49.31
9277;BME280;4676;42.678;23.244;2023-04-01T00:10:56;93227.59;;;14.12;49.68
9277;BME280;4676;42.678;23.244;2023-04-01T00:13:23;93224.16;;;14.13;49.57
9277;BME280;4676;42.678;23.244;2023-04-01T00:15:51;93221.50;;;14.14;49.95
9277;BME280;4676;42.678;23.244;2023-04-01T00:18:17;93224.38;;;14.10;49.56
9277;BME280;4676;42.678;23.244;2023-04-01T00:20:45;93227.22;;;14.18;49.32
9277;BME280;4676;42.678;23.244;2023-04-01T00:23:12;93225.78;;;14.14;49.37
9277;BME280;4676;42.678;23.244;2023-04-01T00:25:39;93223.25;;;14.14;49.64
9277;BME280;4676;42.678;23.244;2023-04-01T00:28:07;93221.69;;;14.11;49.14
9277;BME280;4676;42.678;23.244;2023-04-01T00:30:35;93221.69;;;14.11;49.46
9277;BME280;4676;42.678;23.244;2023-04-01T00:33:02;93213.16;;;13.99;53.89
9277;BME280;4676;42.678;23.244;2023-04-01T00:35:29;93208.38;;;13.70;60.52
9277;BME280;4676;42.678;23.244;2023-04-01T00:37:56;93211.81;;;13.43;65.29
9277;BME280;4676;42.678;23.244;2023-04-01T00:40:26;93204.84;;;12.93;69.09
9277;BME280;4676;42.678;23.244;2023-04-01T00:42:53;93208.34;;;12.78;71.95
9277;BME280;4676;42.678;23.244;2023-04-01T00:45:33;93203.56;;;12.33;75.23
9277;BME280;4676;42.678;23.244;2023-04-01T00:48:05;93206.03;;;12.06;77.74
9277;BME280;4676;42.678;23.244;2023-04-01T00:50:33;93210.03;;;11.96;79.06
9277;BME280;4676;42.678;23.244;2023-04-01T00:53:01;93197.06;;;11.72;83.14
9277;BME280;4676;42.678;23.244;2023-04-01T00:55:30;93195.75;;;11.65;84.07
9277;BME280;4676;42.678;23.244;2023-04-01T00:57:59;93189.47;;;11.42;85.41
9277;BME280;4676;42.678;23.244;2023-04-01T01:00:29;93179.38;;;11.27;86.82
9277;BME280;4676;42.678;23.244;2023-04-01T01:02:56;93181.00;;;11.14;86.68
9277;BME280;4676;42.678;23.244;2023-04-01T01:05:29;93170.41;;;11.07;89.92
9277;BME280;4676;42.678;23.244;2023-04-01T01:08:08;93165.00;;;10.83;92.29
9277;BME280;4676;42.678;23.244;2023-04-01T01:10:39;93166.06;;;10.79;94.56
9277;BME280;4676;42.678;23.244;2023-04-01T01:13:11;93137.72;;;10.57;96.33
9277;BME280;4676;42.678;23.244;2023-04-01T01:15:46;93151.31;;;10.86;94.54
9277;BME280;4676;42.678;23.244;2023-04-01T01:18:19;93148.97;;;10.83;93.26
9277;BME280;4676;42.678;23.244;2023-04-01T01:21:10;93140.06;;;10.76;95.75
9277;BME280;4676;42.678;23.244;2023-04-01T01:24:13;93136.97;;;10.71;93.88
9277;BME280;4676;42.678;23.244;2023-04-01T01:26:50;93126.34;;;10.80;92.13
9277;BME280;4676;42.678;23.244;2023-04-01T01:29:33;93125.03;;;10.73;90.49
9277;BME280;4676;42.678;23.244;2023-04-01T01:32:17;93130.19;;;10.71;89.94
9277;BME280;4676;42.678;23.244;2023-04-01T01:34:54;93132.13;;;10.66;90.34
9277;BME280;4676;42.678;23.244;2023-04-01T01:37:27;93130.94;;;10.58;91.12
9277;BME280;4676;42.678;23.244;2023-04-01T01:39:58;93137.56;;;10.60;92.10
9277;BME280;4676;42.678;23.244;2023-04-01T01:42:28;93138.44;;;10.59;92.13
9277;BME280;4676;42.678;23.244;2023-04-01T01:44:59;93140.31;;;10.71;93.02
9277;BME280;4676;42.678;23.244;2023-04-01T01:47:27;93131.50;;;10.63;91.57
9277;BME280;4676;42.678;23.244;2023-04-01T01:49:55;93123.09;;;10.62;93.22
9277;BME280;4676;42.678;23.244;2023-04-01T01:52:26;93121.50;;;10.75;89.73
9277;BME280;4676;42.678;23.244;2023-04-01T01:54:55;93122.16;;;10.79;89.43
9277;BME280;4676;42.678;23.244;2023-04-01T01:57:24;93110.31;;;10.79;86.06
9277;BME280;4676;42.678;23.244;2023-04-01T01:59:54;93116.31;;;10.92;85.14
9277;BME280;4676;42.678;23.244;2023-04-01T02:02:25;93118.84;;;10.92;83.94
9277;BME280;4676;42.678;23.244;2023-04-01T02:04:52;93115.31;;;10.95;81.79
9277;BME280;4676;42.678;23.244;2023-04-01T02:07:23;93110.34;;;10.93;83.54
9277;BME280;4676;42.678;23.244;2023-04-01T02:09:52;93104.16;;;10.83;84.39
9277;BME280;4676;42.678;23.244;2023-04-01T02:12:20;93099.81;;;10.85;82.73
9277;BME280;4676;42.678;23.244;2023-04-01T02:14:51;93096.34;;;10.72;84.17
9277;BME280;4676;42.678;23.244;2023-04-01T02:17:21;93100.41;;;10.75;84.78
9277;BME280;4676;42.678;23.244;2023-04-01T02:19:51;93103.41;;;10.81;83.50
9277;BME280;4676;42.678;23.244;2023-04-01T02:22:21;93095.31;;;10.90;85.85
9277;BME280;4676;42.678;23.244;2023-04-01T02:24:54;93107.06;;;10.91;84.91
9277;BME280;4676;42.678;23.244;2023-04-01T02:27:24;93109.53;;;10.93;80.39
9277;BME280;4676;42.678;23.244;2023-04-01T02:29:51;93115.19;;;10.82;82.03
9277;BME280;4676;42.678;23.244;2023-04-01T02:32:19;93117.47;;;10.87;81.82
9277;BME280;4676;42.678;23.244;2023-04-01T02:34:47;93094.47;;;10.76;82.86
9277;BME280;4676;42.678;23.244;2023-04-01T02:37:14;93119.41;;;10.97;82.78
9277;BME280;4676;42.678;23.244;2023-04-01T02:39:41;93109.72;;;11.04;78.94
9277;BME280;4676;42.678;23.244;2023-04-01T02:42:10;93114.34;;;10.97;77.43
9277;BME280;4676;42.678;23.244;2023-04-01T02:44:37;93121.13;;;10.97;79.67
9277;BME280;4676;42.678;23.244;2023-04-01T02:47:03;93118.47;;;10.98;79.42
9277;BME280;4676;42.678;23.244;2023-04-01T02:49:30;93064.13;;;10.74;76.12
9277;BME280;4676;42.678;23.244;2023-04-01T02:51:57;93124.78;;;11.21;72.14
9277;BME280;4676;42.678;23.244;2023-04-01T02:54:23;93122.97;;;11.23;73.47
9277;BME280;4676;42.678;23.244;2023-04-01T02:56:50;93129.22;;;11.32;71.54
9277;BME280;4676;42.678;23.244;2023-04-01T02:59:18;93137.84;;;11.29;73.52
9277;BME280;4676;42.678;23.244;2023-04-01T03:01:45;93139.13;;;11.36;69.33
9277;BME280;4676;42.678;23.244;2023-04-01T03:04:11;93131.75;;;11.32;72.09
9277;BME280;4676;42.678;23.244;2023-04-01T03:06:38;93130.69;;;11.50;60.98
9277;BME280;4676;42.678;23.244;2023-04-01T03:09:05;93144.03;;;11.96;56.53
9277;BME280;4676;42.678;23.244;2023-04-01T03:11:31;93149.63;;;12.42;55.81
9277;BME280;4676;42.678;23.244;2023-04-01T03:13:58;93143.03;;;12.66;55.28
9277;BME280;4676;42.678;23.244;2023-04-01T03:16:26;93143.06;;;12.79;55.45
9277;BME280;4676;42.678;23.244;2023-04-01T03:18:53;93143.00;;;12.93;55.70
9277;BME280;4676;42.678;23.244;2023-04-01T03:21:23;93149.50;;;12.97;58.29
9277;BME280;4676;42.678;23.244;2023-04-01T03:23:50;93157.16;;;12.97;60.02
9277;BME280;4676;42.678;23.244;2023-04-01T03:26:17;93164.63;;;12.86;62.04
9277;BME280;4676;42.678;23.244;2023-04-01T03:28:44;93157.22;;;12.83;63.16
9277;BME280;4676;42.678;23.244;2023-04-01T03:31:11;93151.34;;;12.68;66.86
9277;BME280;4676;42.678;23.244;2023-04-01T03:33:39;93135.47;;;12.52;67.00
9277;BME280;4676;42.678;23.244;2023-04-01T03:36:06;93127.56;;;12.42;70.26
9277;BME280;4676;42.678;23.244;2023-04-01T03:38:34;93115.88;;;12.40;73.73
9277;BME280;4676;42.678;23.244;2023-04-01T03:41:01;93108.44;;;12.37;75.59
9277;BME280;4676;42.678;23.244;2023-04-01T03:43:28;93085.88;;;12.32;73.73
9277;BME280;4676;42.678;23.244;2023-04-01T03:45:55;93076.69;;;12.17;77.70
9277;BME280;4676;42.678;23.244;2023-04-01T03:48:23;93063.41;;;11.99;83.91
9277;BME280;4676;42.678;23.244;2023-04-01T03:50:52;93056.72;;;11.84;90.00
9277;BME280;4676;42.678;23.244;2023-04-01T03:53:18;93049.13;;;11.84;95.27
9277;BME280;4676;42.678;23.244;2023-04-01T03:55:45;93044.13;;;11.69;91.71
9277;BME280;4676;42.678;23.244;2023-04-01T03:58:12;93025.84;;;11.49;100.00
9277;BME280;4676;42.678;23.244;2023-04-01T04:00:38;93029.09;;;11.51;100.00
9277;BME280;4676;42.678;23.244;2023-04-01T04:03:06;93034.63;;;11.30;100.00
9277;BME280;4676;42.678;23.244;2023-04-01T04:05:33;93025.50;;;11.27;100.00
9277;BME280;4676;42.678;23.244;2023-04-01T04:08:01;93018.78;;;11.12;100.00
9277;BME280;4676;42.678;23.244;2023-04-01T04:10:28;93015.56;;;11.10;100.00
9277;BME280;4676;42.678;23.244;2023-04-01T04:12:55;93005.03;;;11.02;100.00
9277;BME280;4676;42.678;23.244;2023-04-01T04:15:22;93007.88;;;11.12;100.00
9277;BME280;4676;42.678;23.244;2023-04-01T04:17:49;93021.31;;;10.98;100.00
9277;BME280;4676;42.678;23.244;2023-04-01T04:20:16;93004.50;;;10.83;100.00
9277;BME280;4676;42.678;23.244;2023-04-01T04:22:42;93016.09;;;10.87;100.00
9277;BME280;4676;42.678;23.244;2023-04-01T04:25:10;93012.63;;;10.74;100.00
9277;BME280;4676;42.678;23.244;2023-04-01T04:27:37;93001.84;;;10.70;100.00
9277;BME280;4676;42.678;23.244;2023-04-01T04:30:06;92991.50;;;10.59;100.00
9277;BME280;4676;42.678;23.244;2023-04-01T04:32:33;93000.25;;;10.69;100.00
9277;BME280;4676;42.678;23.244;2023-04-01T04:34:59;92988.47;;;10.68;100.00
9277;BME280;4676;42.678;23.244;2023-04-01T04:37:26;92995.78;;;10.59;100.00
9277;BME280;4676;42.678;23.244;2023-04-01T04:39:53;92986.19;;;10.64;100.00
9277;BME280;4676;42.678;23.244;2023-04-01T04:42:21;92978.88;;;10.73;100.00
9277;BME280;4676;42.678;23.244;2023-04-01T04:44:48;92965.66;;;10.54;100.00
9277;BME280;4676;42.678;23.244;2023-04-01T04:47:15;92962.94;;;10.57;100.00
9277;BME280;4676;42.678;23.244;2023-04-01T04:49:41;92962.56;;;10.49;100.00
9277;BME280;4676;42.678;23.244;2023-04-01T04:52:08;92963.31;;;10.51;100.00
9277;BME280;4676;42.678;23.244;2023-04-01T04:54:35;92970.50;;;10.43;100.00
9277;BME280;4676;42.678;23.244;2023-04-01T04:57:01;92962.84;;;10.44;100.00
9277;BME280;4676;42.678;23.244;2023-04-01T05:01:58;92958.41;;;10.48;100.00
9277;BME280;4676;42.678;23.244;2023-04-01T05:04:24;92959.78;;;10.53;100.00
9277;BME280;4676;42.678;23.244;2023-04-01T05:06:51;92962.28;;;10.39;100.00
9277;BME280;4676;42.678;23.244;2023-04-01T05:09:18;92951.88;;;10.30;100.00
9277;BME280;4676;42.678;23.244;2023-04-01T05:11:44;92944.00;;;10.20;100.00
9277;BME280;4676;42.678;23.244;2023-04-01T05:14:15;92939.56;;;10.24;100.00
9277;BME280;4676;42.678;23.244;2023-04-01T05:16:41;92931.69;;;10.28;100.00
9277;BME280;4676;42.678;23.244;2023-04-01T05:19:10;92924.28;;;10.25;100.00
9277;BME280;4676;42.678;23.244;2023-04-01T05:21:37;92920.78;;;10.12;100.00
9277;BME280;4676;42.678;23.244;2023-04-01T05:24:07;92932.81;;;10.09;100.00
9277;BME280;4676;42.678;23.244;2023-04-01T05:26:34;92910.16;;;10.21;100.00
9277;BME280;4676;42.678;23.244;2023-04-01T05:29:02;92928.25;;;10.15;100.00
9277;BME280;4676;42.678;23.244;2023-04-01T05:31:28;92933.94;;;10.19;100.00
9277;BME280;4676;42.678;23.244;2023-04-01T05:33:55;92925.44;;;10.20;100.00
9277;BME280;4676;42.678;23.244;2023-04-01T05:36:23;92924.03;;;10.30;100.00
9277;BME280;4676;42.678;23.244;2023-04-01T05:38:50;92877.00;;;10.40;100.00
9277;BME280;4676;42.678;23.244;2023-04-01T05:41:17;92924.03;;;10.72;100.00
9277;BME280;4676;42.678;23.244;2023-04-01T05:43:43;92927.41;;;10.87;100.00
9277;BME280;4676;42.678;23.244;2023-04-01T05:46:10;92916.22;;;11.03;100.00
9277;BME280;4676;42.678;23.244;2023-04-01T05:48:37;92925.53;;;11.17;87.34
9277;BME280;4676;42.678;23.244;2023-04-01T05:51:04;92915.28;;;11.33;89.89
9277;BME280;4676;42.678;23.244;2023-04-01T05:53:32;92906.84;;;11.59;86.32
9277;BME280;4676;42.678;23.244;2023-04-01T05:56:02;92895.97;;;11.71;83.44
9277;BME280;4676;42.678;23.244;2023-04-01T05:58:29;92886.03;;;11.81;82.84
9277;BME280;4676;42.678;23.244;2023-04-01T06:01:00;92909.56;;;12.22;86.40
9277;BME280;4676;42.678;23.244;2023-04-01T06:03:27;92901.75;;;12.38;79.69
9277;BME280;4676;42.678;23.244;2023-04-01T06:05:55;92912.41;;;12.43;81.89
9277;BME280;4676;42.678;23.244;2023-04-01T06:08:21;92912.53;;;12.54;79.66
9277;BME280;4676;42.678;23.244;2023-04-01T06:10:55;92892.22;;;12.41;75.59
9277;BME280;4676;42.678;23.244;2023-04-01T06:13:32;92893.19;;;12.39;75.64
9277;BME280;4676;42.678;23.244;2023-04-01T06:16:08;92916.19;;;12.63;79.66
9277;BME280;4676;42.678;23.244;2023-04-01T06:18:53;92908.84;;;12.71;81.11
9277;BME280;4676;42.678;23.244;2023-04-01T06:21:57;92909.25;;;12.77;80.39
9277;BME280;4676;42.678;23.244;2023-04-01T06:24:40;92877.03;;;12.52;79.71
9277;BME280;4676;42.678;23.244;2023-04-01T06:27:18;92911.00;;;12.77;74.17
9277;BME280;4676;42.678;23.244;2023-04-01T06:29:56;92901.84;;;12.74;76.59
9277;BME280;4676;42.678;23.244;2023-04-01T06:32:57;92882.94;;;12.66;72.06
9277;BME280;4676;42.678;23.244;2023-04-01T06:35:48;92896.66;;;12.63;68.86
9277;BME280;4676;42.678;23.244;2023-04-01T06:38:24;92887.41;;;12.37;70.88
9277;BME280;4676;42.678;23.244;2023-04-01T06:41:17;92867.00;;;12.26;72.95
9277;BME280;4676;42.678;23.244;2023-04-01T06:43:57;92869.63;;;12.62;78.03
9277;BME280;4676;42.678;23.244;2023-04-01T06:46:33;92881.72;;;12.71;77.58
9277;BME280;4676;42.678;23.244;2023-04-01T06:49:30;92877.84;;;12.78;75.82
9277;BME280;4676;42.678;23.244;2023-04-01T06:52:03;92871.13;;;12.90;71.53
9277;BME280;4676;42.678;23.244;2023-04-01T06:54:34;92869.78;;;12.84;69.04
9277;BME280;4676;42.678;23.244;2023-04-01T06:57:12;92853.63;;;12.85;67.54
9277;BME280;4676;42.678;23.244;2023-04-01T06:59:47;92857.38;;;12.92;68.31
9277;BME280;4676;42.678;23.244;2023-04-01T07:02:22;92855.44;;;12.96;68.72
9277;BME280;4676;42.678;23.244;2023-04-01T07:04:52;92871.19;;;13.14;71.44
9277;BME280;4676;42.678;23.244;2023-04-01T07:07:25;92848.66;;;13.20;73.59
9277;BME280;4676;42.678;23.244;2023-04-01T07:09:56;92875.50;;;13.37;66.32
9277;BME280;4676;42.678;23.244;2023-04-01T07:12:35;92865.69;;;13.43;66.34
9277;BME280;4676;42.678;23.244;2023-04-01T07:15:13;92858.84;;;12.84;68.14
9277;BME280;4676;42.678;23.244;2023-04-01T07:17:43;92868.00;;;12.61;71.06
9277;BME280;4676;42.678;23.244;2023-04-01T07:20:13;92869.50;;;12.64;70.57
9277;BME280;4676;42.678;23.244;2023-04-01T07:22:44;92873.66;;;12.77;70.76
9277;BME280;4676;42.678;23.244;2023-04-01T07:25:13;92875.38;;;12.89;75.30
9277;BME280;4676;42.678;23.244;2023-04-01T07:27:41;92861.63;;;13.05;75.41
9277;BME280;4676;42.678;23.244;2023-04-01T07:30:15;92864.91;;;13.30;68.89
9277;BME280;4676;42.678;23.244;2023-04-01T07:32:44;92877.53;;;13.56;68.80
9277;BME280;4676;42.678;23.244;2023-04-01T07:35:20;92874.44;;;13.87;68.09
9277;BME280;4676;42.678;23.244;2023-04-01T07:37:59;92865.25;;;13.73;65.36
9277;BME280;4676;42.678;23.244;2023-04-01T07:40:39;92874.78;;;13.59;66.71
9277;BME280;4676;42.678;23.244;2023-04-01T07:43:31;92878.69;;;13.51;67.21
9277;BME280;4676;42.678;23.244;2023-04-01T07:46:12;92867.97;;;13.35;69.19
9277;BME280;4676;42.678;23.244;2023-04-01T07:48:47;92855.47;;;13.20;70.00
9277;BME280;4676;42.678;23.244;2023-04-01T07:51:19;92866.59;;;13.19;70.49
9277;BME280;4676;42.678;23.244;2023-04-01T07:53:58;92868.50;;;13.28;70.00
9277;BME280;4676;42.678;23.244;2023-04-01T07:56:31;92852.78;;;13.10;70.49
9277;BME280;4676;42.678;23.244;2023-04-01T07:59:05;92858.13;;;13.06;70.46
9277;BME280;4676;42.678;23.244;2023-04-01T08:01:42;92846.38;;;13.05;70.33
9277;BME280;4676;42.678;23.244;2023-04-01T08:04:25;92846.16;;;13.08;70.91
9277;BME280;4676;42.678;23.244;2023-04-01T08:06:59;92839.97;;;13.12;71.15
9277;BME280;4676;42.678;23.244;2023-04-01T08:09:38;92835.69;;;13.12;72.00
9277;BME280;4676;42.678;23.244;2023-04-01T08:12:16;92837.16;;;13.27;71.13
9277;BME280;4676;42.678;23.244;2023-04-01T08:14:58;92832.94;;;13.39;71.34
9277;BME280;4676;42.678;23.244;2023-04-01T08:17:38;92823.03;;;13.47;69.91
9277;BME280;4676;42.678;23.244;2023-04-01T08:20:23;92804.31;;;13.59;71.81
9277;BME280;4676;42.678;23.244;2023-04-01T08:22:57;92812.63;;;13.50;68.44
9277;BME280;4676;42.678;23.244;2023-04-01T08:25:28;92793.72;;;13.41;69.22
9277;BME280;4676;42.678;23.244;2023-04-01T08:28:00;92803.84;;;13.54;68.66
9277;BME280;4676;42.678;23.244;2023-04-01T08:30:37;92791.88;;;13.78;70.19
9277;BME280;4676;42.678;23.244;2023-04-01T08:33:12;92794.94;;;13.94;66.23
9277;BME280;4676;42.678;23.244;2023-04-01T08:35:43;92779.22;;;14.23;66.85
9277;BME280;4676;42.678;23.244;2023-04-01T08:38:17;92762.72;;;13.93;67.13
9277;BME280;4676;42.678;23.244;2023-04-01T08:40:57;92735.78;;;14.13;66.48
9277;BME280;4676;42.678;23.244;2023-04-01T08:43:43;92756.91;;;14.48;67.04
9277;BME280;4676;42.678;23.244;2023-04-01T08:46:43;92738.00;;;14.62;64.66
9277;BME280;4676;42.678;23.244;2023-04-01T08:49:26;92734.56;;;14.95;62.60
9277;BME280;4676;42.678;23.244;2023-04-01T08:52:21;92748.50;;;15.23;62.72
9277;BME280;4676;42.678;23.244;2023-04-01T08:55:19;92727.91;;;15.04;58.96
9277;BME280;4676;42.678;23.244;2023-04-01T08:57:57;92755.94;;;15.26;57.58
9277;BME280;4676;42.678;23.244;2023-04-01T09:00:31;92763.34;;;15.29;58.92
9277;BME280;4676;42.678;23.244;2023-04-01T09:06:12;92688.22;;;15.11;56.94
9277;BME280;4676;42.678;23.244;2023-04-01T09:09:00;92744.00;;;15.47;58.29
9277;BME280;4676;42.678;23.244;2023-04-01T09:11:42;92723.94;;;15.42;57.57
9277;BME280;4676;42.678;23.244;2023-04-01T09:18:09;92736.88;;;15.82;55.14
9277;BME280;4676;42.678;23.244;2023-04-01T09:20:47;92744.81;;;16.10;47.60
9277;BME280;4676;42.678;23.244;2023-04-01T09:23:32;92735.63;;;16.28;47.67
9277;BME280;4676;42.678;23.244;2023-04-01T09:29:04;92727.03;;;16.59;44.56
9277;BME280;4676;42.678;23.244;2023-04-01T09:31:56;92725.03;;;16.72;43.67
9277;BME280;4676;42.678;23.244;2023-04-01T09:34:40;92719.66;;;16.75;44.16
9277;BME280;4676;42.678;23.244;2023-04-01T09:37:21;92711.22;;;16.84;45.37
9277;BME280;4676;42.678;23.244;2023-04-01T09:40:09;92708.25;;;16.89;44.75
9277;BME280;4676;42.678;23.244;2023-04-01T09:42:45;92695.59;;;17.07;45.90
9277;BME280;4676;42.678;23.244;2023-04-01T09:45:29;92675.41;;;17.23;45.18
9277;BME280;4676;42.678;23.244;2023-04-01T09:48:07;92681.47;;;17.60;43.09
9277;BME280;4676;42.678;23.244;2023-04-01T09:50:44;92691.16;;;17.76;42.83
9277;BME280;4676;42.678;23.244;2023-04-01T09:53:27;92682.09;;;17.81;42.62
9277;BME280;4676;42.678;23.244;2023-04-01T09:56:22;92664.56;;;17.86;43.91
9277;BME280;4676;42.678;23.244;2023-04-01T09:59:19;92668.72;;;17.97;44.49
9277;BME280;4676;42.678;23.244;2023-04-01T10:02:20;92662.72;;;18.06;44.65
9277;BME280;4676;42.678;23.244;2023-04-01T10:17:01;92616.94;;;17.84;44.36
9277;BME280;4676;42.678;23.244;2023-04-01T10:20:09;92627.59;;;18.16;41.79
9277;BME280;4676;42.678;23.244;2023-04-01T10:23:02;92620.03;;;18.52;42.75
9277;BME280;4676;42.678;23.244;2023-04-01T10:25:53;92623.13;;;18.73;41.45
9277;BME280;4676;42.678;23.244;2023-04-01T10:28:36;92616.69;;;18.69;41.72
9277;BME280;4676;42.678;23.244;2023-04-01T10:34:34;92626.91;;;18.51;41.72
9277;BME280;4676;42.678;23.244;2023-04-01T10:37:17;92606.81;;;18.46;42.31
9277;BME280;4676;42.678;23.244;2023-04-01T10:40:16;92604.09;;;18.48;42.72
9277;BME280;4676;42.678;23.244;2023-04-01T10:54:59;92587.50;;;18.52;42.25
9277;BME280;4676;42.678;23.244;2023-04-01T10:57:54;92585.88;;;18.51;41.87
9277;BME280;4676;42.678;23.244;2023-04-01T11:00:36;92582.53;;;18.51;42.32
9277;BME280;4676;42.678;23.244;2023-04-01T11:03:46;92578.50;;;18.38;41.11
9277;BME280;4676;42.678;23.244;2023-04-01T11:06:48;92571.81;;;18.28;42.04
9277;BME280;4676;42.678;23.244;2023-04-01T11:09:44;92576.00;;;18.29;42.25
9277;BME280;4676;42.678;23.244;2023-04-01T11:16:05;92574.63;;;18.07;42.24
9277;BME280;4676;42.678;23.244;2023-04-01T11:22:14;92606.19;;;17.71;42.94
9277;BME280;4676;42.678;23.244;2023-04-01T11:24:59;92615.38;;;17.54;45.48
9277;BME280;4676;42.678;23.244;2023-04-01T11:28:06;92644.28;;;17.27;48.99
9277;BME280;4676;42.678;23.244;2023-04-01T11:30:49;92651.66;;;16.82;53.21
9277;BME280;4676;42.678;23.244;2023-04-01T11:33:24;92673.41;;;16.48;53.94
9277;BME280;4676;42.678;23.244;2023-04-01T11:36:04;92682.19;;;15.94;58.03
9277;BME280;4676;42.678;23.244;2023-04-01T11:38:54;92729.13;;;15.52;67.28
9277;BME280;4676;42.678;23.244;2023-04-01T11:41:30;92746.88;;;14.90;79.64
9277;BME280;4676;42.678;23.244;2023-04-01T11:44:14;92741.19;;;13.75;93.60
9277;BME280;4676;42.678;23.244;2023-04-01T11:46:54;92791.88;;;13.20;100.00
9277;BME280;4676;42.678;23.244;2023-04-01T11:49:36;92821.69;;;12.81;100.00
9277;BME280;4676;42.678;23.244;2023-04-01T11:55:15;92820.06;;;12.19;100.00
9277;BME280;4676;42.678;23.244;2023-04-01T12:01:15;92833.84;;;11.77;100.00
9277;BME280;4676;42.678;23.244;2023-04-01T12:06:44;92816.38;;;11.45;100.00
9277;BME280;4676;42.678;23.244;2023-04-01T12:09:21;92815.44;;;11.34;100.00
9277;BME280;4676;42.678;23.244;2023-04-01T12:12:00;92811.72;;;11.39;100.00
9277;BME280;4676;42.678;23.244;2023-04-01T12:14:36;92801.06;;;11.47;100.00
9277;BME280;4676;42.678;23.244;2023-04-01T12:17:21;92796.91;;;11.59;100.00
9277;BME280;4676;42.678;23.244;2023-04-01T12:19:58;92806.84;;;12.01;100.00
9277;BME280;4676;42.678;23.244;2023-04-01T12:22:38;92809.81;;;12.20;100.00
9277;BME280;4676;42.678;23.244;2023-04-01T12:25:22;92802.25;;;12.44;100.00
9277;BME280;4676;42.678;23.244;2023-04-01T12:28:01;92809.16;;;12.55;100.00
9277;BME280;4676;42.678;23.244;2023-04-01T12:30:42;92820.09;;;12.68;100.00
9277;BME280;4676;42.678;23.244;2023-04-01T12:33:50;92814.16;;;12.43;100.00
9277;BME280;4676;42.678;23.244;2023-04-01T12:36:32;92828.59;;;12.30;100.00
9277;BME280;4676;42.678;23.244;2023-04-01T12:39:20;92808.88;;;12.09;100.00
9277;BME280;4676;42.678;23.244;2023-04-01T12:41:54;92807.25;;;12.08;100.00
9277;BME280;4676;42.678;23.244;2023-04-01T12:44:37;92741.78;;;11.75;100.00
9277;BME280;4676;42.678;23.244;2023-04-01T12:47:29;92787.16;;;12.05;100.00
9277;BME280;4676;42.678;23.244;2023-04-01T12:50:23;92792.34;;;12.03;100.00
9277;BME280;4676;42.678;23.244;2023-04-01T12:53:04;92769.38;;;11.79;100.00
9277;BME280;4676;42.678;23.244;2023-04-01T12:55:39;92773.84;;;11.88;100.00
9277;BME280;4676;42.678;23.244;2023-04-01T13:01:28;92765.91;;;11.80;100.00
9277;BME280;4676;42.678;23.244;2023-04-01T13:04:25;92780.00;;;11.72;100.00
9277;BME280;4676;42.678;23.244;2023-04-01T13:07:11;92743.06;;;11.68;100.00
9277;BME280;4676;42.678;23.244;2023-04-01T13:09:46;92717.78;;;11.66;100.00
9277;BME280;4676;42.678;23.244;2023-04-01T13:12:29;92718.13;;;11.74;100.00
9277;BME280;4676;42.678;23.244;2023-04-01T13:15:26;92721.25;;;11.90;100.00
9277;BME280;4676;42.678;23.244;2023-04-01T13:18:02;92726.41;;;12.01;100.00
9277;BME280;4676;42.678;23.244;2023-04-01T13:20:43;92726.22;;;12.05;100.00
9277;BME280;4676;42.678;23.244;2023-04-01T13:23:27;92722.94;;;12.15;100.00
9277;BME280;4676;42.678;23.244;2023-04-01T13:26:04;92712.78;;;12.28;100.00
9277;BME280;4676;42.678;23.244;2023-04-01T13:28:39;92717.81;;;12.40;100.00
9277;BME280;4676;42.678;23.244;2023-04-01T13:31:12;92711.34;;;12.60;100.00
9277;BME280;4676;42.678;23.244;2023-04-01T13:33:49;92707.78;;;12.86;100.00
9277;BME280;4676;42.678;23.244;2023-04-01T13:36:24;92681.66;;;13.08;100.00
9277;BME280;4676;42.678;23.244;2023-04-01T13:39:17;92680.34;;;13.02;100.00
9277;BME280;4676;42.678;23.244;2023-04-01T13:42:06;92662.31;;;13.06;100.00
9277;BME280;4676;42.678;23.244;2023-04-01T13:44:39;92671.31;;;13.22;100.00
9277;BME280;4676;42.678;23.244;2023-04-01T13:47:28;92667.44;;;13.40;100.00
9277;BME280;4676;42.678;23.244;2023-04-01T13:50:24;92664.56;;;13.56;100.00
9277;BME280;4676;42.678;23.244;2023-04-01T13:53:16;92656.13;;;13.78;100.00
9277;BME280;4676;42.678;23.244;2023-04-01T13:55:54;92661.34;;;13.87;100.00
9277;BME280;4676;42.678;23.244;2023-04-01T13:58:49;92658.22;;;13.95;97.65
9277;BME280;4676;42.678;23.244;2023-04-01T14:01:28;92645.00;;;14.01;100.00
9277;BME280;4676;42.678;23.244;2023-04-01T14:04:12;92634.94;;;14.11;93.52
9277;BME280;4676;42.678;23.244;2023-04-01T14:06:53;92641.28;;;14.16;89.00
9277;BME280;4676;42.678;23.244;2023-04-01T14:09:45;92640.72;;;14.35;91.40
9277;BME280;4676;42.678;23.244;2023-04-01T14:12:26;92635.94;;;14.41;88.69
9277;BME280;4676;42.678;23.244;2023-04-01T14:15:15;92646.22;;;14.51;84.53
9277;BME280;4676;42.678;23.244;2023-04-01T14:17:57;92641.25;;;14.49;83.57
9277;BME280;4676;42.678;23.244;2023-04-01T14:20:31;92633.28;;;14.43;75.63
9277;BME280;4676;42.678;23.244;2023-04-01T14:23:21;92626.34;;;14.34;77.02
9277;BME280;4676;42.678;23.244;2023-04-01T14:26:21;92619.63;;;14.22;77.21
9277;BME280;4676;42.678;23.244;2023-04-01T14:28:56;92612.69;;;14.35;80.07
9277;BME280;4676;42.678;23.244;2023-04-01T14:31:47;92601.03;;;14.53;81.05
9277;BME280;4676;42.678;23.244;2023-04-01T14:34:24;92600.03;;;14.76;79.47
9277;BME280;4676;42.678;23.244;2023-04-01T14:37:03;92589.16;;;14.95;76.45
9277;BME280;4676;42.678;23.244;2023-04-01T14:39:56;92599.84;;;15.10;76.16
9277;BME280;4676;42.678;23.244;2023-04-01T14:42:48;92590.34;;;15.12;74.02
9277;BME280;4676;42.678;23.244;2023-04-01T14:48:23;92597.63;;;15.16;68.49
9277;BME280;4676;42.678;23.244;2023-04-01T14:50:54;92610.00;;;15.21;67.81
9277;BME280;4676;42.678;23.244;2023-04-01T14:53:27;92594.78;;;15.30;66.94
9277;BME280;4676;42.678;23.244;2023-04-01T14:55:57;92604.88;;;15.41;68.21